Wick, Iowa
Current Conditions -  °F | °C
As of 1:15 PM on Thursday 23 Oct 2014 (Local Time) from KI75 Reporting Station
Overcast Overcast  
Wind Chill: 59°   Ceiling: 700
Heat Index: 59°   Visibility: 10mi
Dew Point: 56°   Wind: 7mph
Humidity: 91%   Direction: 190°S
Pressure: 30.06"   Gusts: NA
Location:  41.2933°N, 93.7977°W
Report Text: KI75 231815Z AUTO 19006KT 10SM OVC007 15/14 A3006 RMK AO2 T01500135
Loading
Personal Weather Stations






























Interactive Weather Map New forecast layout! Learn more

10-Day Weather Forecast

Advertisements
Track Severe Weather on mobile